Time;durP1;ratioP1;P1;durP2;ratioP2;P2;SDS_P1;SDS_P2;PMS_P1;PMS_P2;Temp;Humidity;BMP_temperature;BMP_pressure;BME280_temperature;BME280_humidity;BME280_pressure;Samples;Min_cycle;Max_cycle;Signal;HPM_P1;HPM_P2
2021/05/31 00:01:53;;;;;;;20.95;11.52;;;;;;;14.26;64.26;101706.94;4393240;32;20148;-71
2021/05/31 00:04:19;;;;;;;21.90;11.68;;;;;;;14.41;63.47;101691.19;4394926;32;20054;-71
2021/05/31 00:06:50;;;;;;;19.50;11.80;;;;;;;14.35;63.72;101689.31;4395045;32;20050;-71
2021/05/31 00:09:16;;;;;;;20.00;12.37;;;;;;;14.47;63.10;101697.94;4398192;32;20450;-71
2021/05/31 00:11:43;;;;;;;23.50;11.82;;;;;;;14.41;63.53;101690.41;4393897;32;20642;-71
2021/05/31 00:14:08;;;;;;;20.75;12.50;;;;;;;14.38;63.49;101686.41;4396521;32;20357;-71
2021/05/31 00:16:36;;;;;;;17.95;11.35;;;;;;;14.41;63.06;101693.22;4394754;32;20089;-71
2021/05/31 00:19:04;;;;;;;19.77;12.88;;;;;;;14.50;62.55;101679.25;4397456;32;20608;-71
2021/05/31 00:21:30;;;;;;;17.98;11.50;;;;;;;14.34;62.96;101685.72;4393907;32;20042;-71
2021/05/31 00:23:56;;;;;;;19.08;11.70;;;;;;;14.30;62.82;101685.00;4395796;32;20540;-71
2021/05/31 00:26:22;;;;;;;20.35;12.07;;;;;;;14.31;62.72;101685.78;4395799;32;20106;-71
2021/05/31 00:28:47;;;;;;;19.52;12.15;;;;;;;14.23;62.33;101692.84;4394577;32;20532;-71
2021/05/31 00:31:14;;;;;;;18.10;11.30;;;;;;;13.94;63.39;101692.72;4380092;32;20073;-71
2021/05/31 00:33:40;;;;;;;22.73;11.18;;;;;;;13.81;63.82;101701.06;4394882;32;20042;-71
2021/05/31 00:36:07;;;;;;;19.80;12.20;;;;;;;13.68;64.07;101690.84;4396432;32;20132;-71
2021/05/31 00:38:34;;;;;;;18.48;11.23;;;;;;;13.69;64.33;101678.31;4395405;32;20558;-71
2021/05/31 00:41:01;;;;;;;18.45;11.45;;;;;;;13.48;64.80;101682.41;4394620;32;20124;-71
2021/05/31 00:43:33;;;;;;;19.23;11.63;;;;;;;13.48;64.50;101679.59;4394593;32;20061;-71
2021/05/31 00:46:01;;;;;;;17.05;11.50;;;;;;;13.39;64.66;101673.72;4396002;32;20480;-70
2021/05/31 00:48:28;;;;;;;17.37;11.85;;;;;;;13.44;65.01;101681.66;4395057;32;20468;-71
2021/05/31 00:50:55;;;;;;;17.55;11.35;;;;;;;13.51;64.68;101680.72;4394055;32;20050;-71
2021/05/31 00:53:21;;;;;;;17.33;11.35;;;;;;;13.61;64.31;101676.88;4394315;32;20098;-71
2021/05/31 00:55:47;;;;;;;16.83;10.65;;;;;;;13.65;63.91;101681.22;4394613;32;20096;-71
2021/05/31 00:58:13;;;;;;;18.02;11.70;;;;;;;13.71;63.88;101687.97;4396164;32;20082;-71
2021/05/31 01:00:39;;;;;;;19.40;10.93;;;;;;;13.64;63.67;101688.13;4394202;32;20077;-71
2021/05/31 01:03:05;;;;;;;18.42;11.12;;;;;;;13.69;63.49;101681.94;4393872;32;20066;-71
2021/05/31 01:05:30;;;;;;;17.95;10.93;;;;;;;13.67;63.69;101675.94;4393880;32;20061;-71
2021/05/31 01:07:59;;;;;;;16.58;10.40;;;;;;;13.68;62.95;101677.50;4396357;32;20089;-71
2021/05/31 01:10:52;;;;;;;17.87;10.63;;;;;;;13.61;62.97;101676.88;4394780;32;20082;-71
2021/05/31 01:13:37;;;;;;;15.95;10.68;;;;;;;13.60;62.93;101680.94;4395823;32;20112;-71
2021/05/31 01:18:45;;;;;;;16.75;9.75;;;;;;;13.67;62.54;101690.06;3988216;32;15022511;-71
2021/05/31 01:21:50;;;;;;;15.60;9.50;;;;;;;13.58;62.14;101680.56;4434954;32;20041;-71
2021/05/31 01:27:08;;;;;;;17.98;9.88;;;;;;;13.71;61.13;101681.50;3960195;32;15723494;-69
2021/05/31 01:29:34;;;;;;;16.67;10.13;;;;;;;13.61;61.15;101674.03;4430823;32;20457;-69
2021/05/31 01:32:03;;;;;;;20.40;10.77;;;;;;;13.64;60.94;101668.31;4431340;32;20037;-71
2021/05/31 01:34:33;;;;;;;20.35;11.07;;;;;;;13.55;61.61;101670.13;4425908;32;20478;-72
2021/05/31 01:37:04;;;;;;;16.58;10.18;;;;;;;13.65;61.20;101674.75;4433391;32;20113;-70
2021/05/31 01:39:32;;;;;;;18.58;10.75;;;;;;;13.58;61.65;101670.06;4430301;32;20049;-70
2021/05/31 01:41:59;;;;;;;15.70;10.13;;;;;;;13.61;61.28;101668.38;4428635;32;20045;-70
2021/05/31 01:44:26;;;;;;;17.92;10.45;;;;;;;13.69;61.36;101667.78;4437702;32;20065;-70
2021/05/31 01:46:52;;;;;;;16.30;9.77;;;;;;;13.70;61.04;101666.56;4429556;32;20030;-70
2021/05/31 01:49:20;;;;;;;18.23;10.15;;;;;;;13.72;60.98;101652.75;4437011;32;20049;-70
2021/05/31 01:51:47;;;;;;;17.52;10.82;;;;;;;13.80;60.86;101656.22;4436192;32;20136;-70
2021/05/31 01:54:15;;;;;;;17.15;10.98;;;;;;;13.85;60.70;101650.87;4423826;32;20113;-70
2021/05/31 01:56:44;;;;;;;18.42;10.07;;;;;;;13.87;60.77;101653.25;4428842;32;20117;-69
2021/05/31 01:59:11;;;;;;;19.20;11.35;;;;;;;13.95;60.47;101641.34;4422618;32;20482;-72
2021/05/31 02:01:38;;;;;;;19.70;10.02;;;;;;;13.81;60.84;101638.81;4430868;32;20112;-71
2021/05/31 02:04:04;;;;;;;17.27;11.07;;;;;;;13.93;60.60;101640.97;4417830;32;20043;-72
2021/05/31 02:06:30;;;;;;;19.70;11.38;;;;;;;13.82;60.78;101640.44;4421337;32;20046;-70
2021/05/31 02:08:56;;;;;;;19.65;11.10;;;;;;;13.67;61.09;101642.00;4423495;32;20131;-70
2021/05/31 02:11:32;;;;;;;22.25;12.00;;;;;;;13.53;61.69;101639.47;4412495;32;20054;-70
2021/05/31 02:14:02;;;;;;;19.52;11.12;;;;;;;13.46;61.86;101642.44;4423701;32;20045;-70
2021/05/31 02:16:34;;;;;;;21.95;12.40;;;;;;;13.36;62.00;101637.81;4411464;32;20145;-70
2021/05/31 02:19:02;;;;;;;20.73;12.45;;;;;;;12.99;62.59;101634.53;4418027;32;20108;-70
2021/05/31 02:21:30;;;;;;;22.40;13.18;;;;;;;12.81;63.37;101640.50;4423686;32;20049;-71
2021/05/31 02:23:58;;;;;;;21.70;12.80;;;;;;;12.71;63.30;101637.88;4415654;32;20097;-70
2021/05/31 02:26:24;;;;;;;20.65;13.20;;;;;;;12.65;63.61;101642.44;4415548;32;20617;-70
2021/05/31 02:28:50;;;;;;;22.80;12.93;;;;;;;12.52;64.02;101638.66;4418303;32;20498;-70
2021/05/31 02:31:17;;;;;;;22.58;13.40;;;;;;;12.56;63.83;101633.72;4422518;32;20080;-70
2021/05/31 02:33:47;;;;;;;25.80;13.50;;;;;;;12.60;63.51;101629.59;4414298;32;20050;-70
2021/05/31 02:36:13;;;;;;;22.92;12.65;;;;;;;12.48;63.95;101643.53;4418222;32;20042;-70
2021/05/31 02:38:39;;;;;;;21.50;12.52;;;;;;;12.57;63.68;101641.75;4407630;32;20045;-70
2021/05/31 02:41:05;;;;;;;23.52;13.05;;;;;;;12.60;63.92;101623.97;4411250;32;20516;-70
2021/05/31 02:43:33;;;;;;;25.20;13.70;;;;;;;12.50;63.79;101629.78;4397561;32;20442;-70
2021/05/31 02:45:58;;;;;;;23.85;13.27;;;;;;;12.37;63.83;101637.28;4400597;32;20069;-70
2021/05/31 02:48:25;;;;;;;21.83;13.18;;;;;;;12.43;64.17;101633.56;4414698;32;20045;-70
2021/05/31 02:50:56;;;;;;;21.80;13.15;;;;;;;12.36;64.15;101627.25;4412856;32;20065;-70
2021/05/31 02:53:22;;;;;;;22.58;13.15;;;;;;;12.47;63.35;101625.81;4407691;32;20047;-70
2021/05/31 02:55:48;;;;;;;23.83;14.68;;;;;;;12.43;64.01;101633.56;4399880;32;20142;-70
2021/05/31 02:58:14;;;;;;;24.15;14.20;;;;;;;12.45;64.14;101630.31;4414301;32;20038;-70
2021/05/31 03:00:40;;;;;;;26.77;15.25;;;;;;;12.53;63.61;101626.91;4412182;32;20083;-70
2021/05/31 03:03:06;;;;;;;31.30;17.15;;;;;;;12.48;64.15;101623.78;4398447;32;20131;-70
2021/05/31 03:05:32;;;;;;;29.33;18.35;;;;;;;12.52;64.17;101630.94;4398344;32;20122;-70
2021/05/31 03:07:58;;;;;;;30.40;17.65;;;;;;;12.29;64.99;101616.84;4401187;32;20046;-70
2021/05/31 03:10:25;;;;;;;30.45;18.45;;;;;;;12.33;64.79;101623.22;4413681;32;20745;-70
2021/05/31 03:12:51;;;;;;;32.20;19.77;;;;;;;12.32;64.74;101618.00;4410563;32;20054;-70
2021/05/31 03:15:19;;;;;;;34.22;19.00;;;;;;;12.29;65.18;101599.91;4400433;32;20348;-70
2021/05/31 03:17:46;;;;;;;34.33;19.20;;;;;;;12.39;64.97;101606.63;4401541;32;20034;-70
2021/05/31 03:20:12;;;;;;;37.15;19.20;;;;;;;12.47;64.67;101608.88;4404984;32;20110;-70
2021/05/31 03:22:38;;;;;;;33.83;18.95;;;;;;;12.45;64.82;101607.72;4397674;32;20103;-70
2021/05/31 03:25:05;;;;;;;32.38;19.15;;;;;;;12.54;64.60;101605.91;4397691;32;20058;-70
2021/05/31 03:27:31;;;;;;;32.40;18.55;;;;;;;12.58;64.21;101603.81;4407049;32;20042;-70
2021/05/31 03:29:56;;;;;;;32.15;18.70;;;;;;;12.46;64.21;101596.00;4412172;32;20094;-70
2021/05/31 03:32:22;;;;;;;30.73;18.98;;;;;;;12.61;63.72;101591.66;4409413;32;20113;-70
2021/05/31 03:34:48;;;;;;;33.70;20.02;;;;;;;12.54;64.15;101593.81;4411177;32;20053;-70
2021/05/31 03:37:13;;;;;;;33.85;18.67;;;;;;;12.58;63.89;101589.69;4410405;32;20042;-70
2021/05/31 03:39:39;;;;;;;37.92;20.58;;;;;;;12.58;64.00;101589.69;4409247;32;20030;-70
2021/05/31 03:42:05;;;;;;;32.50;19.37;;;;;;;12.52;64.30;101594.25;4409005;32;20094;-70
2021/05/31 03:44:31;;;;;;;34.03;19.48;;;;;;;12.56;63.98;101588.53;4408851;32;20087;-70
2021/05/31 03:46:56;;;;;;;36.20;19.55;;;;;;;12.59;63.57;101580.03;4406711;32;20033;-70
2021/05/31 03:49:23;;;;;;;33.85;18.50;;;;;;;12.51;64.38;101589.84;4410648;32;20412;-70
2021/05/31 03:51:48;;;;;;;33.47;18.05;;;;;;;12.50;64.46;101579.78;4398153;32;20085;-70
2021/05/31 03:54:14;;;;;;;35.35;19.52;;;;;;;12.53;64.61;101581.75;4400925;32;20072;-70
2021/05/31 03:56:40;;;;;;;31.85;18.40;;;;;;;12.64;64.46;101581.56;4411117;32;20049;-70
2021/05/31 03:59:08;;;;;;;38.13;19.58;;;;;;;12.77;64.16;101586.13;4413796;32;20462;-71
2021/05/31 04:01:34;;;;;;;32.35;18.20;;;;;;;12.88;63.73;101583.88;4408697;32;20339;-70
2021/05/31 04:04:00;;;;;;;32.85;18.00;;;;;;;12.97;63.25;101591.75;4412179;32;20137;-70
2021/05/31 04:12:03;;;;;;;;;;;;;;;13.62;61.79;101591.56;4438050;32;20093;-71
2021/05/31 04:14:29;;;;;;;30.98;16.98;;;;;;;13.36;61.85;101588.94;4439653;32;19964;-71
2021/05/31 04:16:56;;;;;;;27.62;16.90;;;;;;;13.30;61.76;101585.03;4436463;32;20075;-71
2021/05/31 04:19:24;;;;;;;30.98;16.62;;;;;;;13.34;61.99;101589.37;4435788;32;20112;-71
2021/05/31 04:21:52;;;;;;;30.10;16.83;;;;;;;13.17;62.46;101584.94;4425851;32;20061;-71
2021/05/31 04:24:19;;;;;;;27.75;16.05;;;;;;;13.15;62.53;101576.06;4438258;32;20124;-70
2021/05/31 04:26:46;;;;;;;27.77;16.60;;;;;;;13.18;62.50;101578.03;4438876;32;20042;-71
2021/05/31 04:29:15;;;;;;;28.42;15.77;;;;;;;13.25;62.66;101580.69;4436797;32;20095;-71
2021/05/31 04:31:41;;;;;;;27.80;16.20;;;;;;;13.31;62.19;101575.31;4422580;32;20450;-71
2021/05/31 04:34:09;;;;;;;27.02;15.27;;;;;;;13.36;61.98;101578.44;4423598;32;20053;-71
2021/05/31 04:36:35;;;;;;;27.40;15.85;;;;;;;13.41;61.69;101572.25;4424095;32;20080;-71
2021/05/31 04:39:04;;;;;;;24.85;14.65;;;;;;;13.43;61.57;101575.47;4424056;32;20050;-71
2021/05/31 04:41:30;;;;;;;26.52;14.70;;;;;;;13.49;61.83;101578.56;4427107;32;20091;-69
2021/05/31 04:43:56;;;;;;;26.33;14.68;;;;;;;13.61;61.59;101572.22;4440491;32;20067;-69
2021/05/31 04:46:22;;;;;;;27.45;16.02;;;;;;;13.74;61.14;101576.75;4426197;32;20144;-72
2021/05/31 04:48:47;;;;;;;31.30;15.40;;;;;;;13.66;61.02;101578.12;4424357;32;20072;-71
2021/05/31 04:51:13;;;;;;;27.20;15.80;;;;;;;13.81;60.81;101584.28;4423839;32;20428;-71
2021/05/31 04:53:38;;;;;;;25.95;14.63;;;;;;;14.12;59.72;101579.88;4422644;32;20045;-71
2021/05/31 04:56:07;;;;;;;26.60;15.98;;;;;;;14.20;59.19;101584.09;4427847;32;20042;-71
2021/05/31 04:58:34;;;;;;;24.25;14.77;;;;;;;14.35;59.08;101582.53;4427841;32;20122;-71
2021/05/31 05:01:00;;;;;;;25.50;14.35;;;;;;;14.43;58.43;101581.12;4434103;32;20074;-71
2021/05/31 05:03:25;;;;;;;22.92;14.82;;;;;;;14.01;59.60;101577.31;4423462;32;20029;-71
2021/05/31 05:05:51;;;;;;;27.87;15.80;;;;;;;14.24;58.99;101582.03;4423683;32;20077;-70
2021/05/31 05:08:17;;;;;;;27.60;15.32;;;;;;;14.27;58.88;101586.81;4419182;32;20058;-71
2021/05/31 05:10:43;;;;;;;21.35;13.65;;;;;;;14.34;58.89;101583.78;4418650;32;20088;-71
2021/05/31 05:13:10;;;;;;;22.75;14.52;;;;;;;14.23;58.99;101577.59;4429641;32;20091;-71
2021/05/31 05:15:36;;;;;;;28.65;14.23;;;;;;;14.19;59.40;101587.38;4422419;32;20385;-71
2021/05/31 05:18:03;;;;;;;25.42;14.75;;;;;;;14.47;58.79;101581.81;4423931;32;20061;-71
2021/05/31 05:20:30;;;;;;;27.67;14.95;;;;;;;14.33;58.88;101585.00;4411085;32;20069;-71
2021/05/31 05:22:56;;;;;;;22.08;13.93;;;;;;;14.33;59.17;101572.91;4418615;32;20033;-71
2021/05/31 05:25:23;;;;;;;23.33;13.95;;;;;;;14.30;59.22;101576.63;4416542;32;20196;-71
2021/05/31 05:27:50;;;;;;;26.02;14.57;;;;;;;14.35;59.06;101578.87;4413431;32;20045;-71
2021/05/31 05:30:20;;;;;;;24.55;13.98;;;;;;;14.42;58.69;101579.50;4408985;32;20033;-71
2021/05/31 05:32:48;;;;;;;22.10;13.60;;;;;;;14.49;58.39;101570.84;4409625;32;20053;-71
2021/05/31 05:46:37;;;;;;;19.60;12.70;;;;;;;14.72;57.41;101569.78;4439255;32;20406;-71
2021/05/31 05:49:05;;;;;;;19.02;12.77;;;;;;;14.68;56.63;101560.59;4431741;32;20057;-72
2021/05/31 05:51:31;;;;;;;27.17;14.02;;;;;;;14.58;57.14;101571.00;4432861;32;20071;-71
2021/05/31 05:53:59;;;;;;;21.65;13.10;;;;;;;14.49;57.49;101572.87;4438638;32;20393;-71
2021/05/31 05:56:25;;;;;;;24.10;14.75;;;;;;;14.40;57.81;101565.00;4437242;32;20442;-71
2021/05/31 05:58:53;;;;;;;23.23;14.00;;;;;;;14.13;58.84;101560.84;4437798;32;20120;-71
2021/05/31 06:01:19;;;;;;;24.83;14.43;;;;;;;14.03;59.11;101566.31;4417508;32;20086;-71
2021/05/31 06:03:47;;;;;;;22.90;13.70;;;;;;;13.92;59.47;101568.63;4408798;32;20042;-71
2021/05/31 06:06:13;;;;;;;21.48;14.07;;;;;;;14.37;58.57;101565.09;4408539;32;20107;-71
2021/05/31 06:08:39;;;;;;;21.15;12.90;;;;;;;14.31;58.71;101566.88;4413598;32;20427;-71
2021/05/31 06:11:05;;;;;;;20.75;12.48;;;;;;;14.22;59.04;101572.34;4416527;32;20167;-71
2021/05/31 06:13:31;;;;;;;18.15;12.10;;;;;;;14.59;57.19;101558.41;4416753;32;20383;-71
2021/05/31 06:16:01;;;;;;;18.70;11.55;;;;;;;14.80;56.68;101566.34;4408983;32;20467;-71
2021/05/31 06:18:28;;;;;;;21.55;12.32;;;;;;;14.82;56.08;101568.72;4418061;32;20054;-71
2021/05/31 06:20:54;;;;;;;23.02;12.25;;;;;;;14.92;55.92;101559.09;4417049;32;20075;-71
2021/05/31 06:23:20;;;;;;;18.27;11.77;;;;;;;14.79;55.95;101566.78;4420774;32;20054;-71
2021/05/31 06:25:46;;;;;;;19.55;11.68;;;;;;;15.03;55.62;101574.56;4408703;32;20104;-71
2021/05/31 06:28:12;;;;;;;24.75;12.27;;;;;;;15.24;54.80;101564.63;4422628;32;20053;-71
2021/05/31 06:30:38;;;;;;;24.95;13.10;;;;;;;15.22;55.21;101561.47;4418938;32;20042;-71
2021/05/31 06:33:04;;;;;;;20.85;12.82;;;;;;;15.27;55.33;101566.56;4408901;32;20060;-71
2021/05/31 06:35:30;;;;;;;20.75;13.30;;;;;;;15.22;55.50;101547.28;4422296;32;20423;-71
2021/05/31 06:37:57;;;;;;;24.90;13.90;;;;;;;15.19;55.52;101563.13;4422261;32;20047;-71
2021/05/31 06:40:24;;;;;;;25.48;13.18;;;;;;;15.17;55.53;101565.66;4416723;32;20164;-71
2021/05/31 06:42:50;;;;;;;22.90;13.50;;;;;;;15.24;55.51;101559.75;4422079;32;20161;-71
2021/05/31 06:45:23;;;;;;;22.52;13.10;;;;;;;15.12;55.22;101563.34;4424822;32;20050;-71
2021/05/31 06:47:50;;;;;;;25.27;13.25;;;;;;;15.30;55.41;101557.94;4409113;32;20058;-71
2021/05/31 06:50:16;;;;;;;22.67;12.93;;;;;;;15.14;55.48;101569.37;4418360;32;20064;-71
2021/05/31 06:52:42;;;;;;;22.40;13.38;;;;;;;15.24;55.61;101564.63;4418987;32;20377;-71
2021/05/31 06:55:09;;;;;;;20.15;12.52;;;;;;;15.33;55.31;101561.91;4411871;32;20030;-71
2021/05/31 06:57:35;;;;;;;24.90;13.32;;;;;;;15.28;55.32;101565.34;4412856;32;20061;-71
2021/05/31 07:00:01;;;;;;;20.55;13.05;;;;;;;15.45;54.58;101559.16;4413139;32;20084;-70
2021/05/31 07:02:27;;;;;;;21.33;12.82;;;;;;;15.35;54.83;101559.44;4407881;32;20050;-71
2021/05/31 07:04:52;;;;;;;22.05;13.55;;;;;;;15.35;54.90;101559.44;4413218;32;20070;-70
2021/05/31 07:07:20;;;;;;;24.55;14.85;;;;;;;15.31;55.04;101570.09;4412775;32;20169;-71
2021/05/31 07:09:47;;;;;;;26.40;14.23;;;;;;;15.33;55.13;101576.09;4411656;32;20038;-71
2021/05/31 07:12:15;;;;;;;24.92;13.62;;;;;;;15.51;54.92;101570.72;4407695;32;20150;-71
2021/05/31 07:14:44;;;;;;;21.27;13.05;;;;;;;15.52;54.58;101566.63;4408433;32;20038;-71
2021/05/31 07:17:11;;;;;;;27.30;12.70;;;;;;;15.78;54.05;101563.34;4411610;32;20042;-71
2021/05/31 07:19:40;;;;;;;23.92;13.10;;;;;;;15.81;54.04;101558.81;4408469;32;20062;-71
2021/05/31 07:22:06;;;;;;;22.35;13.50;;;;;;;15.77;54.19;101567.44;4410284;32;20121;-71
2021/05/31 07:24:32;;;;;;;23.90;13.13;;;;;;;15.78;54.17;101563.34;4402367;32;20098;-71
2021/05/31 07:26:58;;;;;;;20.83;12.48;;;;;;;16.01;53.49;101565.03;4407469;32;20121;-71
2021/05/31 07:29:23;;;;;;;21.12;13.07;;;;;;;16.02;53.50;101560.94;4413017;32;20038;-71
2021/05/31 07:31:49;;;;;;;23.10;13.77;;;;;;;16.12;52.93;101559.78;4406874;32;20057;-71
2021/05/31 07:34:15;;;;;;;21.95;12.75;;;;;;;16.31;51.86;101558.72;4413085;32;20353;-71
2021/05/31 07:36:41;;;;;;;21.52;13.80;;;;;;;16.76;51.15;101552.69;4413954;32;20075;-71
2021/05/31 07:39:07;;;;;;;17.17;11.52;;;;;;;16.70;51.54;101552.50;4405599;32;20098;-71
2021/05/31 07:41:33;;;;;;;19.90;12.23;;;;;;;17.08;50.52;101561.63;4402391;32;20107;-71
2021/05/31 07:43:59;;;;;;;24.58;13.20;;;;;;;16.88;50.49;101555.44;4396819;32;20038;-69
2021/05/31 07:46:25;;;;;;;19.35;12.27;;;;;;;17.34;49.51;101560.19;4404466;32;20068;-70
2021/05/31 07:48:52;;;;;;;22.20;13.20;;;;;;;17.66;48.71;101553.28;4408376;32;20038;-70
2021/05/31 07:51:19;;;;;;;18.95;11.80;;;;;;;18.01;47.51;101562.44;4399048;32;20072;-69
2021/05/31 07:53:48;;;;;;;20.12;12.48;;;;;;;18.01;47.58;101539.66;4404704;32;20134;-70
2021/05/31 07:56:14;;;;;;;18.60;11.77;;;;;;;18.37;46.88;101545.44;4404652;32;20075;-70
2021/05/31 07:58:42;;;;;;;22.00;12.98;;;;;;;18.38;45.77;101538.47;4409470;32;20164;-70
2021/05/31 08:01:08;;;;;;;22.00;13.07;;;;;;;17.69;48.02;101536.06;4410681;32;20140;-70
2021/05/31 08:03:34;;;;;;;22.02;12.77;;;;;;;18.34;46.34;101534.94;4405148;32;20069;-71
2021/05/31 08:06:00;;;;;;;20.85;12.20;;;;;;;18.81;45.47;101538.94;4409728;32;20048;-71
2021/05/31 08:08:27;;;;;;;23.67;12.20;;;;;;;18.85;45.13;101527.38;4411565;32;20046;-71
2021/05/31 08:10:53;;;;;;;19.75;12.35;;;;;;;18.93;45.27;101538.00;4404364;32;20042;-71
2021/05/31 08:13:20;;;;;;;20.52;12.52;;;;;;;19.17;44.75;101532.41;4401209;32;20064;-71
2021/05/31 08:15:45;;;;;;;19.62;11.95;;;;;;;19.38;44.33;101540.00;4408889;32;20042;-71
2021/05/31 08:18:11;;;;;;;21.52;12.93;;;;;;;19.53;43.96;101536.00;4411738;32;20062;-71
2021/05/31 08:20:38;;;;;;;20.37;13.57;;;;;;;19.76;43.58;101543.81;4401793;32;20076;-71
2021/05/31 08:23:04;;;;;;;21.55;12.73;;;;;;;19.62;43.99;101538.00;4397254;32;20031;-71
2021/05/31 08:25:31;;;;;;;20.80;12.65;;;;;;;19.42;44.07;101538.56;4406748;32;20045;-71
2021/05/31 08:27:57;;;;;;;22.48;12.98;;;;;;;19.23;44.43;101536.19;4412220;32;20049;-71
2021/05/31 08:30:22;;;;;;;18.33;12.05;;;;;;;19.48;44.38;101527.25;4412692;32;20115;-71
2021/05/31 08:32:48;;;;;;;20.02;11.68;;;;;;;19.77;43.75;101536.84;4410388;32;20042;-71
2021/05/31 08:35:15;;;;;;;19.52;11.85;;;;;;;19.76;43.53;101543.03;4404714;32;20103;-71
2021/05/31 08:37:41;;;;;;;21.73;12.60;;;;;;;19.96;42.91;101533.88;4405780;32;20085;-71
2021/05/31 08:40:08;;;;;;;20.70;11.77;;;;;;;19.90;43.09;101536.59;4396382;32;20446;-71
2021/05/31 08:42:36;;;;;;;18.20;11.40;;;;;;;20.14;42.90;101534.59;4400552;32;20065;-71
2021/05/31 08:45:05;;;;;;;18.30;12.55;;;;;;;20.29;42.11;101531.81;4403747;32;20066;-71
2021/05/31 08:47:38;;;;;;;18.87;11.95;;;;;;;20.02;42.89;101532.75;4405403;32;20065;-69
2021/05/31 08:50:04;;;;;;;18.12;12.32;;;;;;;20.29;42.35;101520.38;4409424;32;20096;-71
2021/05/31 08:52:30;;;;;;;22.83;12.68;;;;;;;20.23;42.65;101525.16;4409255;32;20049;-71
2021/05/31 08:54:56;;;;;;;19.70;11.85;;;;;;;19.91;43.18;101526.75;4410058;32;20080;-71
2021/05/31 08:57:25;;;;;;;19.73;12.85;;;;;;;20.06;43.10;101518.28;4407768;32;20053;-70
2021/05/31 08:59:51;;;;;;;16.85;11.38;;;;;;;20.10;43.12;101516.81;4398425;32;20175;-70
2021/05/31 09:02:17;;;;;;;19.10;11.73;;;;;;;20.24;42.67;101518.97;4405136;32;20093;-69
2021/05/31 09:04:46;;;;;;;18.55;10.93;;;;;;;20.20;42.57;101518.37;4395042;32;20562;-70
2021/05/31 09:07:13;;;;;;;19.20;11.05;;;;;;;20.49;42.29;101523.41;4397259;32;20085;-69
2021/05/31 09:09:41;;;;;;;16.00;10.73;;;;;;;20.49;41.96;101511.97;4400115;32;20139;-71
2021/05/31 09:12:09;;;;;;;16.12;11.05;;;;;;;20.29;42.65;101515.44;4397756;32;20076;-70
2021/05/31 09:14:35;;;;;;;19.90;11.80;;;;;;;20.43;42.60;101513.94;4405503;32;20042;-70
2021/05/31 09:17:01;;;;;;;18.62;11.00;;;;;;;20.69;41.81;101515.75;4410890;32;20148;-71
2021/05/31 09:19:26;;;;;;;18.98;11.75;;;;;;;20.55;41.95;101510.00;4400428;32;20060;-69
2021/05/31 09:21:52;;;;;;;22.10;12.63;;;;;;;20.82;41.42;101513.41;4407025;32;20046;-69
2021/05/31 09:24:23;;;;;;;22.83;13.45;;;;;;;20.96;41.32;101512.66;4411091;32;20041;-69
2021/05/31 09:29:29;;;;;;;21.67;13.35;;;;;;;22.04;39.93;101524.91;3979827;32;15158620;-71
2021/05/31 09:32:10;;;;;;;20.20;13.32;;;;;;;22.04;39.93;101524.91;4430858;32;20140;-69
2021/05/31 09:34:36;;;;;;;23.35;14.55;;;;;;;21.19;41.07;101514.66;4437728;32;20053;-72
2021/05/31 09:37:03;;;;;;;27.02;14.75;;;;;;;21.22;41.26;101510.81;4426797;32;20197;-71
2021/05/31 09:39:33;;;;;;;23.17;14.35;;;;;;;20.82;42.11;101516.28;4434873;32;20424;-71
2021/05/31 09:42:06;;;;;;;20.85;13.40;;;;;;;21.12;41.53;101512.19;4436228;32;20040;-70
2021/05/31 09:44:33;;;;;;;20.50;13.77;;;;;;;21.37;40.89;101511.59;4433065;32;20140;-70
2021/05/31 09:46:58;;;;;;;23.92;14.02;;;;;;;21.46;40.67;101507.81;4433846;32;20415;-71
2021/05/31 09:49:26;;;;;;;22.08;13.05;;;;;;;21.34;40.86;101506.84;4440630;32;20532;-70
2021/05/31 09:57:30;;;;;;;20.20;13.55;;;;;;;22.36;39.63;101514.41;3989723;32;15021809;-71
2021/05/31 10:00:00;;;;;;;22.70;13.32;;;;;;;22.36;39.63;101514.41;4427553;32;20094;-71
2021/05/31 10:02:32;;;;;;;19.48;12.90;;;;;;;22.51;38.88;101507.31;4416967;32;20034;-71
2021/05/31 10:05:10;;;;;;;22.20;13.35;;;;;;;22.99;38.37;101499.78;4418987;32;20083;-70
2021/05/31 10:07:50;;;;;;;25.83;16.12;;;;;;;23.36;37.70;101494.94;4422896;32;20049;-70
2021/05/31 10:10:16;;;;;;;24.05;14.32;;;;;;;23.57;37.17;101501.37;4415853;32;20068;-70
2021/05/31 10:12:43;;;;;;;20.35;14.63;;;;;;;23.72;37.14;101502.03;4408874;32;20623;-70
2021/05/31 10:15:11;;;;;;;20.80;13.70;;;;;;;24.02;36.47;101496.75;4424956;32;20091;-70
2021/05/31 10:17:38;;;;;;;22.02;15.60;;;;;;;23.79;36.72;101492.91;4423335;32;20140;-72
2021/05/31 10:20:06;;;;;;;22.60;14.82;;;;;;;23.67;37.11;101494.13;4417370;32;20068;-70
2021/05/31 10:22:34;;;;;;;22.42;12.95;;;;;;;23.41;37.47;101499.16;4407997;32;20408;-70
2021/05/31 10:25:01;;;;;;;21.50;14.05;;;;;;;23.54;37.01;101490.91;4418008;32;20061;-70
2021/05/31 10:27:30;;;;;;;24.65;14.73;;;;;;;23.77;37.14;101495.50;4422670;32;20050;-70
2021/05/31 10:29:58;;;;;;;19.42;13.23;;;;;;;24.28;36.36;101489.56;4422913;32;20049;-70
2021/05/31 10:32:25;;;;;;;21.35;14.48;;;;;;;25.15;34.47;101491.16;4421061;32;20066;-70
2021/05/31 10:34:53;;;;;;;20.77;14.05;;;;;;;26.37;32.52;101496.78;4424524;32;20087;-70
2021/05/31 10:37:28;;;;;;;23.80;14.60;;;;;;;27.20;31.69;101497.13;4421978;32;20467;-70
2021/05/31 10:42:39;;;;;;;22.67;13.77;;;;;;;26.46;32.59;101502.28;3976935;32;15024929;-71
2021/05/31 10:58:52;;;;;;;22.45;14.50;;;;;;;25.76;34.27;101473.06;3975580;32;15026487;-71
2021/05/31 11:01:23;;;;;;;21.00;13.98;;;;;;;25.77;33.70;101474.66;4418434;32;20088;-70
2021/05/31 11:04:21;;;;;;;20.67;13.73;;;;;;;25.40;34.38;101474.94;4408692;32;20082;-70
2021/05/31 11:06:49;;;;;;;23.95;14.73;;;;;;;25.40;34.37;101477.06;4405260;32;20049;-70
2021/05/31 11:09:19;;;;;;;22.62;15.73;;;;;;;24.77;35.66;101465.97;4408570;32;20371;-70
2021/05/31 11:14:43;;;;;;;21.05;14.90;;;;;;;25.38;35.61;101445.88;3979359;32;15023277;-71
2021/05/31 11:19:48;;;;;;;19.83;13.02;;;;;;;27.14;32.52;101444.38;3990314;32;15024182;-72
2021/05/31 11:22:18;;;;;;;23.90;14.50;;;;;;;27.14;32.52;101444.38;4436342;32;20033;-70
2021/05/31 11:25:05;;;;;;;19.87;13.82;;;;;;;26.62;32.82;101437.91;4425995;32;20156;-69
2021/05/31 11:27:34;;;;;;;19.42;13.13;;;;;;;26.46;33.37;101447.41;4432329;32;20473;-71
2021/05/31 11:30:03;;;;;;;19.85;13.95;;;;;;;26.47;33.31;101441.13;4425902;32;20450;-71
2021/05/31 11:32:29;;;;;;;22.90;14.02;;;;;;;26.07;34.01;101438.13;4436780;32;20120;-70
2021/05/31 11:37:33;;;;;;;20.85;13.68;;;;;;;26.93;33.11;101423.78;3976602;32;15022613;-70
2021/05/31 11:40:00;;;;;;;20.98;13.23;;;;;;;26.93;33.11;101423.78;4427121;32;20045;-70
2021/05/31 11:42:27;;;;;;;17.42;13.32;;;;;;;26.58;33.37;101431.59;4431959;32;20076;-70
2021/05/31 11:44:54;;;;;;;19.27;13.35;;;;;;;26.99;32.81;101424.53;4438787;32;20502;-70
2021/05/31 11:47:22;;;;;;;19.62;12.75;;;;;;;27.59;31.64;101427.44;4429522;32;20050;-70
2021/05/31 11:49:48;;;;;;;21.58;12.73;;;;;;;28.05;31.09;101424.31;4436554;32;20366;-70
2021/05/31 11:52:15;;;;;;;19.67;12.85;;;;;;;28.60;30.09;101427.28;4428894;32;20154;-70
2021/05/31 11:54:43;;;;;;;18.45;12.23;;;;;;;29.03;29.84;101419.25;4437964;32;20129;-70
2021/05/31 11:57:12;;;;;;;18.52;12.68;;;;;;;29.01;29.83;101418.25;4433127;32;20057;-70
2021/05/31 12:02:17;;;;;;;22.33;13.45;;;;;;;29.54;29.40;101410.50;3965351;32;15022686;-70
2021/05/31 12:04:43;;;;;;;18.50;14.20;;;;;;;29.54;29.40;101410.50;4427679;32;20065;-71
2021/05/31 12:07:11;;;;;;;22.37;14.05;;;;;;;28.85;30.01;101417.19;4438395;32;20127;-69
2021/05/31 12:09:39;;;;;;;18.70;13.05;;;;;;;29.00;29.79;101411.66;4439778;32;20086;-72